Time;durP1;ratioP1;P1;durP2;ratioP2;P2;SDS_P1;SDS_P2;PMS_P1;PMS_P2;Temp;Humidity;BMP_temperature;BMP_pressure;BME280_temperature;BME280_humidity;BME280_pressure;Samples;Min_cycle;Max_cycle;Signal;HPM_P1;HPM_P2
2022/01/24 00:01:39;;;;;;;20.58;9.65;;;-4.00;96.90;;;;;;6189003;23;20028;-89
2022/01/24 00:04:07;;;;;;;21.58;10.35;;;-4.00;96.70;;;;;;6223143;23;20059;-88
2022/01/24 00:06:33;;;;;;;20.92;9.60;;;-4.10;97.10;;;;;;6206331;23;20001;-87
2022/01/24 00:09:03;;;;;;;21.17;10.48;;;-4.10;97.30;;;;;;6221887;23;19997;-88
2022/01/24 00:11:44;;;;;;;20.95;9.80;;;-4.10;97.80;;;;;;6189866;23;20004;-89
2022/01/24 00:27:25;;;;;;;20.13;9.88;;;-4.00;98.00;;;;;;6216252;23;20384;-89
2022/01/24 00:29:50;;;;;;;22.10;10.23;;;-4.00;98.20;;;;;;6188406;23;20017;-89
2022/01/24 00:32:16;;;;;;;21.40;10.68;;;-4.00;98.20;;;;;;6188922;23;20051;-90
2022/01/24 00:34:42;;;;;;;18.88;9.77;;;-4.00;98.40;;;;;;6188714;23;20136;-90
2022/01/24 00:37:09;;;;;;;21.70;10.07;;;-4.00;98.60;;;;;;6215376;23;20000;-89
2022/01/24 00:39:35;;;;;;;20.33;9.48;;;-4.00;98.60;;;;;;6189194;23;20005;-89
2022/01/24 00:47:02;;;;;;;21.02;10.23;;;-4.00;98.50;;;;;;6214777;23;20411;-86
2022/01/24 00:54:57;;;;;;;21.45;10.25;;;-4.00;98.50;;;;;;6215833;23;20435;-87
2022/01/24 00:57:23;;;;;;;25.23;12.50;;;-4.00;98.70;;;;;;6215909;23;20024;-87
2022/01/24 00:59:49;;;;;;;29.00;13.38;;;-4.00;98.80;;;;;;6215821;23;20001;-84
2022/01/24 01:02:16;;;;;;;25.10;12.48;;;-4.10;99.00;;;;;;6216068;23;20001;-88
2022/01/24 01:05:11;;;;;;;21.80;11.32;;;-4.10;98.80;;;;;;6189023;23;20005;-86
2022/01/24 01:07:38;;;;;;;32.75;13.80;;;-4.00;98.40;;;;;;6214936;23;20003;-86
2022/01/24 01:18:19;;;;;;;19.95;9.57;;;-4.10;96.90;;;;;;6216143;23;20007;-87
2022/01/24 01:23:16;;;;;;;20.77;10.35;;;-4.20;96.50;;;;;;6225440;23;20055;-87
2022/01/24 01:25:43;;;;;;;22.45;10.13;;;-4.30;96.90;;;;;;6189092;23;20004;-85
2022/01/24 01:28:10;;;;;;;17.50;9.32;;;-4.30;97.40;;;;;;6189106;23;20006;-87
2022/01/24 01:30:41;;;;;;;23.30;9.48;;;-4.30;97.70;;;;;;6215488;23;20103;-86
2022/01/24 01:54:56;;;;;;;18.33;9.23;;;-4.50;99.90;;;;;;6216404;23;20098;-86
2022/01/24 01:57:23;;;;;;;23.55;9.63;;;-4.50;99.90;;;;;;6190941;23;20091;-86
2022/01/24 01:59:49;;;;;;;23.13;10.05;;;-4.50;99.90;;;;;;6216785;23;20493;-85
2022/01/24 02:02:15;;;;;;;20.27;9.13;;;-4.50;99.90;;;;;;6216181;23;20036;-86
2022/01/24 02:04:41;;;;;;;19.67;9.52;;;-4.60;99.90;;;;;;6189885;23;20000;-86
2022/01/24 02:07:12;;;;;;;19.20;9.07;;;-4.50;99.70;;;;;;6189800;23;20074;-85
2022/01/24 02:09:40;;;;;;;16.77;8.18;;;-4.50;99.20;;;;;;6190064;23;20016;-85
2022/01/24 02:12:07;;;;;;;16.30;8.85;;;-4.50;98.80;;;;;;6189839;23;20035;-85
2022/01/24 02:14:37;;;;;;;16.83;8.23;;;-4.50;98.90;;;;;;6216386;23;20009;-85
2022/01/24 02:17:11;;;;;;;16.48;7.97;;;-4.50;98.50;;;;;;6216848;23;20024;-85
2022/01/24 02:25:06;;;;;;;13.68;7.05;;;-4.50;98.60;;;;;;6217705;23;20080;-85
2022/01/24 02:27:42;;;;;;;17.58;8.60;;;-4.50;98.30;;;;;;6192671;23;20087;-85
2022/01/24 02:32:40;;;;;;;17.23;8.05;;;-4.50;98.70;;;;;;6218173;23;20032;-85
2022/01/24 02:35:08;;;;;;;17.40;7.97;;;-4.50;98.50;;;;;;6191854;23;20286;-84
2022/01/24 02:37:33;;;;;;;17.65;8.27;;;-4.50;98.40;;;;;;6191758;23;19997;-85
2022/01/24 02:40:12;;;;;;;16.63;7.68;;;-4.50;98.40;;;;;;6218392;23;20000;-85
2022/01/24 02:53:17;;;;;;;14.50;7.57;;;-4.60;99.70;;;;;;6218241;23;20427;-87
2022/01/24 02:55:44;;;;;;;14.40;7.20;;;-4.60;98.70;;;;;;6192660;23;20059;-87
2022/01/24 02:58:09;;;;;;;14.05;7.28;;;-4.60;98.00;;;;;;6218288;23;20001;-87
2022/01/24 03:00:36;;;;;;;15.15;7.47;;;-4.70;97.70;;;;;;6191832;23;20382;-87
2022/01/24 03:03:03;;;;;;;19.73;9.30;;;-4.70;97.70;;;;;;6191587;23;20083;-87
2022/01/24 03:05:30;;;;;;;20.30;9.05;;;-4.70;98.00;;;;;;6218150;23;19996;-85
2022/01/24 03:07:56;;;;;;;17.40;8.30;;;-4.70;98.30;;;;;;6191458;23;20424;-85
2022/01/24 03:10:27;;;;;;;15.60;8.32;;;-4.60;98.40;;;;;;6191383;23;20001;-85
2022/01/24 03:13:32;;;;;;;16.10;7.93;;;-4.60;98.30;;;;;;6191079;23;20024;-86
2022/01/24 03:15:48;;;;;;;15.02;7.30;;;-4.60;98.10;;;;;;6213847;23;20013;-85
2022/01/24 03:18:14;;;;;;;17.98;7.97;;;-4.70;98.00;;;;;;6191314;23;20502;-85
2022/01/24 03:20:40;;;;;;;16.70;7.82;;;-4.70;98.00;;;;;;6191457;23;20023;-86
2022/01/24 03:23:06;;;;;;;14.20;7.38;;;-4.70;98.30;;;;;;6218034;23;20001;-85
2022/01/24 03:25:32;;;;;;;13.90;7.47;;;-4.70;98.20;;;;;;6191156;23;20011;-84
2022/01/24 03:27:58;;;;;;;15.48;7.65;;;-4.70;98.10;;;;;;6217490;23;20001;-85
2022/01/24 03:30:24;;;;;;;16.98;8.50;;;-4.70;97.90;;;;;;6217918;23;20017;-85
2022/01/24 03:32:50;;;;;;;16.73;8.52;;;-4.70;98.10;;;;;;6217833;23;20400;-86
2022/01/24 03:35:17;;;;;;;16.98;8.27;;;-4.70;98.00;;;;;;6217327;23;20000;-86
2022/01/24 03:37:42;;;;;;;16.38;8.07;;;-4.70;98.00;;;;;;6190419;23;20050;-87
2022/01/24 03:40:09;;;;;;;19.55;9.30;;;-4.70;98.10;;;;;;6191001;23;20067;-87
2022/01/24 03:42:36;;;;;;;17.10;8.45;;;-4.60;98.10;;;;;;6217975;23;20364;-84
2022/01/24 03:45:06;;;;;;;17.40;8.25;;;-4.60;98.00;;;;;;6191335;23;20305;-86
2022/01/24 03:50:00;;;;;;;15.52;8.07;;;-4.70;96.70;;;;;;6233394;23;20366;-82
2022/01/24 03:52:26;;;;;;;16.98;7.50;;;-4.80;96.90;;;;;;6223702;23;20428;-83
2022/01/24 03:54:52;;;;;;;15.05;7.70;;;-4.80;96.90;;;;;;6195315;23;20004;-85
2022/01/24 03:57:20;;;;;;;13.90;8.00;;;-4.80;97.40;;;;;;6192013;23;20023;-85
2022/01/24 03:59:46;;;;;;;17.05;7.95;;;-4.90;97.70;;;;;;6192167;23;20004;-84
2022/01/24 04:02:13;;;;;;;13.77;6.88;;;-4.90;97.80;;;;;;6217776;23;20084;-86
2022/01/24 04:04:39;;;;;;;13.55;7.20;;;-4.90;98.00;;;;;;6217437;23;20031;-86
2022/01/24 04:07:05;;;;;;;13.70;6.57;;;-4.90;97.70;;;;;;6191030;23;20087;-86
2022/01/24 04:09:31;;;;;;;12.55;6.80;;;-5.00;97.20;;;;;;6217510;23;20025;-85
2022/01/24 04:11:58;;;;;;;12.48;6.97;;;-5.00;98.10;;;;;;6190292;23;20015;-85
2022/01/24 04:17:08;;;;;;;12.75;6.80;;;-5.00;97.90;;;;;;6218063;23;20048;-84
2022/01/24 04:22:04;;;;;;;32.72;7.10;;;-4.90;99.00;;;;;;6227949;23;20004;-86
2022/01/24 04:24:30;;;;;;;13.25;6.45;;;-5.00;99.00;;;;;;6190184;23;20007;-86
2022/01/24 04:26:55;;;;;;;14.50;6.53;;;-5.10;99.70;;;;;;6190721;23;20415;-87
2022/01/24 04:29:21;;;;;;;11.50;6.18;;;-5.10;99.60;;;;;;6190309;23;20021;-87
2022/01/24 04:31:47;;;;;;;12.32;6.45;;;-5.10;99.40;;;;;;6216999;23;19996;-88
2022/01/24 04:34:12;;;;;;;11.45;6.00;;;-5.10;99.60;;;;;;6217079;23;20000;-87
2022/01/24 04:36:38;;;;;;;12.23;6.78;;;-5.10;99.50;;;;;;6189817;23;20084;-88
2022/01/24 04:39:05;;;;;;;12.15;6.57;;;-5.10;99.90;;;;;;6190553;23;20011;-88
2022/01/24 04:41:35;;;;;;;11.60;5.82;;;-5.10;99.90;;;;;;6216934;23;20001;-87
2022/01/24 04:54:47;;;;;;;10.43;5.63;;;-5.20;99.90;;;;;;6096018;23;20382;-86
2022/01/24 04:57:15;;;;;;;12.18;5.95;;;-5.10;99.90;;;;;;6141801;23;20005;-87
2022/01/24 04:59:42;;;;;;;13.70;5.82;;;-5.10;99.90;;;;;;6190367;23;20083;-86
2022/01/24 05:02:08;;;;;;;10.55;5.95;;;-5.10;99.90;;;;;;6216972;23;20004;-85
2022/01/24 05:04:35;;;;;;;11.48;6.45;;;-5.10;99.90;;;;;;6216686;23;20028;-85
2022/01/24 05:07:01;;;;;;;12.52;6.43;;;-5.00;99.90;;;;;;6190081;23;20001;-85
2022/01/24 05:09:31;;;;;;;12.10;6.40;;;-5.00;99.90;;;;;;6215772;23;20012;-84
2022/01/24 05:12:03;;;;;;;11.55;6.70;;;-5.00;99.90;;;;;;6216863;23;20001;-85
2022/01/24 05:25:25;;;;;;;14.45;7.22;;;-4.90;99.90;;;;;;6216529;23;20024;-88
2022/01/24 05:27:51;;;;;;;14.75;7.65;;;-4.90;99.90;;;;;;6189747;23;20005;-87
2022/01/24 05:30:17;;;;;;;14.73;7.93;;;-4.90;99.90;;;;;;6189829;23;20013;-87
2022/01/24 05:32:43;;;;;;;15.95;7.93;;;-4.80;99.90;;;;;;6216105;23;20000;-87
2022/01/24 05:35:09;;;;;;;16.38;8.23;;;-4.90;99.90;;;;;;6189303;23;20011;-87
2022/01/24 05:37:35;;;;;;;15.30;7.45;;;-4.80;99.90;;;;;;6215276;23;19996;-88
2022/01/24 05:40:01;;;;;;;14.55;8.13;;;-4.80;99.90;;;;;;6216722;23;20333;-87
2022/01/24 05:42:26;;;;;;;14.65;7.70;;;-4.80;99.90;;;;;;6189874;23;20008;-87
2022/01/24 05:44:53;;;;;;;15.45;7.57;;;-4.70;99.90;;;;;;6215744;23;20001;-85
2022/01/24 05:47:19;;;;;;;13.43;7.68;;;-4.30;99.90;;;;;;6190119;23;20087;-86
2022/01/24 05:49:46;;;;;;;17.05;7.65;;;-4.70;99.90;;;;;;6216758;23;20028;-86
2022/01/24 05:52:12;;;;;;;17.77;8.27;;;-4.60;99.80;;;;;;6189630;23;20015;-86
2022/01/24 05:54:41;;;;;;;16.92;7.80;;;-4.60;99.10;;;;;;6189613;23;20008;-86
2022/01/24 05:57:08;;;;;;;14.10;7.78;;;-4.60;98.10;;;;;;6189452;23;20419;-86
2022/01/24 05:59:35;;;;;;;13.48;6.97;;;-4.60;98.20;;;;;;6188723;23;20008;-87
2022/01/24 06:02:00;;;;;;;11.68;7.00;;;-4.50;98.00;;;;;;6189431;23;20000;-87
2022/01/24 06:04:26;;;;;;;13.77;7.57;;;-4.50;97.70;;;;;;6189646;23;20076;-86
2022/01/24 06:06:52;;;;;;;16.02;7.22;;;-4.50;98.00;;;;;;6216232;23;19996;-87
2022/01/24 06:09:18;;;;;;;15.40;7.82;;;-4.40;97.20;;;;;;6215948;23;20055;-86
2022/01/24 06:11:43;;;;;;;14.95;7.70;;;-4.40;96.50;;;;;;6215602;23;20076;-88
2022/01/24 06:14:10;;;;;;;16.08;7.35;;;-4.40;96.50;;;;;;6189865;23;20095;-89
2022/01/24 06:16:38;;;;;;;12.57;7.47;;;-4.30;96.50;;;;;;6187536;23;20825;-87
2022/01/24 06:19:04;;;;;;;14.90;7.45;;;-4.30;96.20;;;;;;6184456;23;20004;-85
2022/01/24 06:21:30;;;;;;;12.35;6.70;;;-4.30;96.40;;;;;;6184771;23;20095;-86
2022/01/24 06:23:56;;;;;;;12.02;7.00;;;-4.30;96.20;;;;;;6185703;23;20008;-87
2022/01/24 06:26:21;;;;;;;153.20;69.85;;;-4.20;95.60;;;;;;6185144;23;19996;-86
2022/01/24 06:28:47;;;;;;;68.53;30.08;;;-4.20;95.10;;;;;;6184558;23;20016;-86
2022/01/24 06:31:13;;;;;;;34.17;16.10;;;-4.20;95.00;;;;;;6186002;23;20037;-85
2022/01/24 06:33:38;;;;;;;24.17;10.85;;;-4.20;94.80;;;;;;6210684;23;20434;-84
2022/01/24 06:36:07;;;;;;;17.00;8.63;;;-4.10;94.70;;;;;;6183475;23;20411;-91
2022/01/24 06:38:36;;;;;;;14.80;7.63;;;-4.10;94.00;;;;;;6185333;23;20305;-87
2022/01/24 06:41:02;;;;;;;15.35;7.65;;;-4.10;93.80;;;;;;6184171;23;20008;-86
2022/01/24 06:43:28;;;;;;;16.27;8.32;;;-4.10;94.20;;;;;;6184090;23;20001;-85
2022/01/24 06:45:54;;;;;;;14.80;7.55;;;-4.10;93.80;;;;;;6212270;23;20408;-88
2022/01/24 06:48:19;;;;;;;17.50;8.32;;;-4.10;93.70;;;;;;6184314;23;20036;-87
2022/01/24 06:50:45;;;;;;;15.18;8.38;;;-4.10;93.80;;;;;;6182835;23;20005;-86
2022/01/24 06:53:11;;;;;;;16.13;7.88;;;-4.10;93.50;;;;;;6183778;23;20012;-87
2022/01/24 06:55:46;;;;;;;16.73;7.53;;;-4.10;93.10;;;;;;6210326;23;20001;-90
2022/01/24 06:58:12;;;;;;;21.00;9.05;;;-4.00;92.70;;;;;;6184061;23;20011;-87
2022/01/24 07:00:38;;;;;;;12.55;7.60;;;-4.10;91.70;;;;;;6183636;23;20001;-89
2022/01/24 07:03:04;;;;;;;15.15;7.82;;;-4.10;92.20;;;;;;6184948;23;20011;-89
2022/01/24 07:05:32;;;;;;;15.57;7.78;;;-4.10;92.00;;;;;;6181956;23;20040;-88
2022/01/24 07:07:59;;;;;;;17.38;8.10;;;-4.20;92.20;;;;;;6209616;23;19996;-87
2022/01/24 07:10:25;;;;;;;15.75;7.40;;;-4.10;92.40;;;;;;6212386;23;20001;-87
2022/01/24 07:12:51;;;;;;;18.70;8.77;;;-4.10;92.50;;;;;;6185434;23;20021;-88
2022/01/24 07:15:20;;;;;;;14.75;7.57;;;-4.10;92.10;;;;;;6185900;23;20368;-87
2022/01/24 07:20:16;;;;;;;17.23;9.18;;;-4.10;92.20;;;;;;6214591;23;20004;-87
2022/01/24 07:22:42;;;;;;;20.63;9.48;;;-4.00;92.20;;;;;;6212319;23;20079;-88
2022/01/24 07:25:08;;;;;;;21.40;10.23;;;-4.00;91.70;;;;;;6185134;23;20035;-88
2022/01/24 07:27:34;;;;;;;20.77;10.18;;;-4.00;92.00;;;;;;6187196;23;20012;-88
2022/01/24 07:30:01;;;;;;;20.17;9.43;;;-3.90;92.10;;;;;;6214363;23;20017;-88
2022/01/24 07:32:28;;;;;;;18.33;8.95;;;-3.90;91.90;;;;;;6222876;23;20051;-87
2022/01/24 07:34:54;;;;;;;32.22;15.07;;;-3.90;91.50;;;;;;6188483;23;20380;-86
2022/01/24 07:37:21;;;;;;;37.63;15.77;;;-3.90;91.80;;;;;;6185875;23;20036;-86
2022/01/24 07:39:48;;;;;;;22.73;11.35;;;-3.80;91.30;;;;;;6190054;23;20020;-87
2022/01/24 07:42:26;;;;;;;21.15;10.23;;;-3.70;91.10;;;;;;6214553;23;19997;-86
2022/01/24 07:44:52;;;;;;;21.95;10.57;;;-3.70;91.10;;;;;;6212885;23;19996;-84
2022/01/24 07:47:18;;;;;;;20.10;10.13;;;-3.60;90.60;;;;;;6211957;23;20016;-82
2022/01/24 07:49:43;;;;;;;17.60;8.73;;;-3.60;90.30;;;;;;6211998;23;20083;-86
2022/01/24 07:52:09;;;;;;;113.80;47.80;;;-3.60;89.80;;;;;;6187323;23;20016;-87
2022/01/24 07:54:35;;;;;;;47.08;20.25;;;-3.50;90.10;;;;;;6216558;23;20004;-87
2022/01/24 07:57:01;;;;;;;27.73;13.20;;;-3.40;90.00;;;;;;6217646;23;20001;-87
2022/01/24 07:59:27;;;;;;;26.15;11.13;;;-3.30;89.40;;;;;;6189758;23;20091;-89
2022/01/24 08:01:53;;;;;;;21.63;9.98;;;-3.20;89.30;;;;;;6218153;23;20024;-91
2022/01/24 08:04:18;;;;;;;23.63;10.20;;;-3.20;88.50;;;;;;6189422;23;20028;-88
2022/01/24 08:06:46;;;;;;;25.17;11.50;;;-3.10;88.20;;;;;;6210806;23;20043;-88
2022/01/24 08:09:12;;;;;;;25.80;9.98;;;-3.00;87.70;;;;;;6182119;23;20004;-89
2022/01/24 08:11:38;;;;;;;18.85;9.10;;;-3.10;86.40;;;;;;6181953;23;20028;-89
2022/01/24 08:14:04;;;;;;;24.90;10.60;;;-3.10;86.80;;;;;;6181365;23;20025;-89
2022/01/24 08:16:29;;;;;;;23.70;10.52;;;-3.20;86.30;;;;;;6178938;23;20001;-89
2022/01/24 08:18:57;;;;;;;22.35;10.57;;;-3.20;87.60;;;;;;6206489;23;20004;-88
2022/01/24 08:21:23;;;;;;;18.85;9.90;;;-3.30;87.60;;;;;;6181192;23;20004;-89
2022/01/24 08:23:50;;;;;;;23.00;10.77;;;-3.40;88.40;;;;;;6180987;23;20367;-92
2022/01/24 08:26:17;;;;;;;22.30;10.10;;;-3.40;89.40;;;;;;6183497;23;20001;-91
2022/01/24 08:28:43;;;;;;;24.48;10.90;;;-3.40;90.00;;;;;;6210486;23;19999;-90
2022/01/24 08:31:09;;;;;;;20.17;10.40;;;-3.40;90.50;;;;;;6183184;23;20032;-89
2022/01/24 08:33:34;;;;;;;22.65;10.32;;;-3.40;90.30;;;;;;6183621;23;20027;-89
2022/01/24 08:36:00;;;;;;;20.63;9.43;;;-3.30;90.20;;;;;;6189734;23;20009;-89
2022/01/24 08:38:27;;;;;;;19.20;9.77;;;-3.20;90.00;;;;;;6188720;23;20016;-90
2022/01/24 08:40:58;;;;;;;21.23;10.07;;;-3.10;89.10;;;;;;6183742;23;20012;-90
2022/01/24 08:43:38;;;;;;;;;;;-3.20;87.90;;;;;;6185168;23;20009;-89
2022/01/24 08:46:05;;;;;;;19.80;10.10;;;-3.20;86.90;;;;;;6210282;23;19904;-90
2022/01/24 08:48:31;;;;;;;22.55;10.75;;;-3.20;88.10;;;;;;6183701;23;20040;-90
2022/01/24 08:50:59;;;;;;;19.95;9.95;;;-3.00;88.70;;;;;;6183169;23;20005;-90
2022/01/24 08:53:33;;;;;;;26.98;10.98;;;-3.00;87.50;;;;;;6182683;23;20505;-90
2022/01/24 08:56:05;;;;;;;20.83;10.82;;;-2.90;87.40;;;;;;6182831;23;20398;-90
2022/01/24 08:58:33;;;;;;;22.58;11.45;;;-2.90;86.30;;;;;;6183203;23;20075;-91
2022/01/24 09:00:59;;;;;;;26.00;11.27;;;-2.90;87.20;;;;;;6183063;23;20032;-91
2022/01/24 09:03:29;;;;;;;25.42;11.70;;;-2.80;87.20;;;;;;6183263;23;20016;-93
2022/01/24 09:06:00;;;;;;;24.83;11.35;;;-2.70;87.10;;;;;;6183206;23;20412;-89
2022/01/24 09:08:25;;;;;;;20.92;10.50;;;-2.70;86.00;;;;;;6185394;23;20442;-90
2022/01/24 09:10:52;;;;;;;23.08;10.10;;;-2.70;86.20;;;;;;6210778;23;19997;-89
2022/01/24 09:13:21;;;;;;;20.27;9.93;;;-2.70;85.70;;;;;;6183426;23;20017;-90
2022/01/24 09:15:48;;;;;;;22.35;10.40;;;-2.70;85.80;;;;;;6184501;23;20092;-88
2022/01/24 09:18:15;;;;;;;24.70;11.40;;;-2.60;85.80;;;;;;6184371;23;20083;-88
2022/01/24 09:20:41;;;;;;;21.45;11.10;;;-2.60;85.10;;;;;;6210133;23;19996;-89
2022/01/24 09:23:09;;;;;;;22.48;12.13;;;-2.60;85.50;;;;;;6189444;23;20001;-88
2022/01/24 09:25:35;;;;;;;22.70;10.93;;;-2.60;85.90;;;;;;6185116;23;20005;-88
2022/01/24 09:28:02;;;;;;;22.73;11.15;;;-2.60;85.40;;;;;;6210645;23;20000;-89
2022/01/24 09:30:28;;;;;;;24.52;12.00;;;-2.60;85.70;;;;;;6209921;23;20059;-88
2022/01/24 09:32:54;;;;;;;26.63;12.05;;;-2.60;85.80;;;;;;6184958;23;20024;-89
2022/01/24 09:35:20;;;;;;;20.85;10.55;;;-2.70;86.10;;;;;;6183892;23;20004;-88
2022/01/24 09:37:47;;;;;;;23.92;10.98;;;-2.70;86.00;;;;;;6184264;23;20007;-89
2022/01/24 09:40:15;;;;;;;22.08;10.93;;;-2.60;86.00;;;;;;6184750;23;20054;-89
2022/01/24 09:42:46;;;;;;;27.52;11.77;;;-2.60;85.40;;;;;;6183916;23;20419;-89
2022/01/24 09:45:12;;;;;;;23.00;10.50;;;-2.60;85.80;;;;;;6184031;23;19997;-88
2022/01/24 09:47:39;;;;;;;17.65;10.13;;;-2.70;85.00;;;;;;6184428;23;20502;-88
2022/01/24 09:50:08;;;;;;;21.00;11.10;;;-2.70;85.00;;;;;;6210847;23;20000;-89
2022/01/24 09:52:34;;;;;;;19.38;10.60;;;-2.70;85.50;;;;;;6208386;23;20016;-88
2022/01/24 09:55:00;;;;;;;21.70;11.32;;;-2.70;85.10;;;;;;6183140;23;19996;-87
2022/01/24 09:57:25;;;;;;;23.05;11.25;;;-2.70;85.80;;;;;;6210790;23;20001;-88
2022/01/24 09:59:52;;;;;;;25.13;11.90;;;-2.60;86.00;;;;;;6209982;23;20427;-88
2022/01/24 10:02:18;;;;;;;26.27;13.27;;;-2.60;85.50;;;;;;6210190;23;19996;-87
2022/01/24 10:04:44;;;;;;;27.77;11.30;;;-2.70;84.60;;;;;;6209435;23;20054;-88
2022/01/24 10:07:13;;;;;;;21.73;11.82;;;-2.70;85.30;;;;;;6182657;23;20328;-88
2022/01/24 10:09:53;;;;;;;23.83;11.60;;;-2.70;85.50;;;;;;6209595;23;20424;-87
2022/01/24 10:17:37;;;;;;;23.50;11.50;;;-2.80;86.00;;;;;;6209518;23;20067;-88
2022/01/24 10:20:19;;;;;;;23.60;11.98;;;-2.80;86.90;;;;;;6183037;23;19997;-87
2022/01/24 10:23:02;;;;;;;28.58;12.93;;;-2.80;86.30;;;;;;6183118;23;19996;-87
2022/01/24 10:25:29;;;;;;;25.83;11.73;;;-2.70;85.90;;;;;;6182248;23;20301;-88
2022/01/24 10:28:04;;;;;;;24.85;12.05;;;-2.80;86.00;;;;;;6184223;23;20055;-88
2022/01/24 10:30:30;;;;;;;22.42;12.18;;;-2.80;86.10;;;;;;6182046;23;20024;-88
2022/01/24 10:32:57;;;;;;;22.58;11.90;;;-2.70;86.80;;;;;;6210719;23;20009;-87
2022/01/24 10:35:35;;;;;;;24.38;12.02;;;-2.70;86.40;;;;;;6210271;23;20103;-89
2022/01/24 10:38:42;;;;;;;22.52;12.48;;;-2.70;86.40;;;;;;6184370;23;20047;-88
2022/01/24 10:41:28;;;;;;;23.10;12.38;;;-2.70;86.50;;;;;;6184402;23;20123;-87
2022/01/24 10:43:56;;;;;;;24.35;12.30;;;-2.80;86.70;;;;;;6184491;23;20722;-86
2022/01/24 10:46:29;;;;;;;26.95;12.73;;;-2.80;87.30;;;;;;6183217;23;20035;-87
2022/01/24 10:49:07;;;;;;;26.63;13.77;;;-2.80;87.60;;;;;;6216371;23;20007;-88
2022/01/24 10:51:44;;;;;;;25.25;12.57;;;-2.80;87.70;;;;;;6190205;23;20008;-88
2022/01/24 10:54:12;;;;;;;24.88;13.30;;;-2.80;87.60;;;;;;6209157;23;20096;-88
2022/01/24 10:56:44;;;;;;;24.35;12.98;;;-2.80;88.00;;;;;;6209263;23;20121;-87
2022/01/24 10:59:21;;;;;;;23.90;12.90;;;-2.90;88.90;;;;;;6211991;23;19996;-88
2022/01/24 11:01:51;;;;;;;25.83;13.30;;;-3.00;89.70;;;;;;6210235;23;20494;-87
2022/01/24 11:04:18;;;;;;;27.65;14.57;;;-3.00;89.60;;;;;;6184436;23;20058;-86
2022/01/24 11:06:55;;;;;;;24.58;12.90;;;-3.00;90.30;;;;;;6185670;23;20009;-87
2022/01/24 11:09:35;;;;;;;26.38;13.57;;;-3.00;90.20;;;;;;6187882;23;20000;-88
2022/01/24 11:12:10;;;;;;;24.50;12.07;;;-2.90;90.30;;;;;;6189631;23;20022;-86
2022/01/24 11:14:43;;;;;;;30.83;13.98;;;-2.80;90.00;;;;;;6204264;23;20071;-87
2022/01/24 11:17:13;;;;;;;32.25;14.50;;;-2.70;89.20;;;;;;6193330;23;20001;-88
2022/01/24 11:19:51;;;;;;;24.85;12.80;;;-2.80;88.60;;;;;;6185156;23;20001;-87
2022/01/24 11:22:24;;;;;;;27.13;12.68;;;-2.70;88.90;;;;;;6211435;23;20144;-89
2022/01/24 11:24:59;;;;;;;26.48;12.38;;;-2.80;88.80;;;;;;6211653;23;20004;-90
2022/01/24 11:27:27;;;;;;;23.75;12.30;;;-2.70;89.30;;;;;;6184548;23;20000;-88
2022/01/24 11:30:08;;;;;;;28.67;13.50;;;-2.70;89.20;;;;;;6211785;23;20016;-89
2022/01/24 11:32:40;;;;;;;26.05;13.18;;;-2.70;89.10;;;;;;6185310;23;20075;-89
2022/01/24 11:35:07;;;;;;;24.65;11.90;;;-2.60;90.10;;;;;;6211875;23;20359;-88
2022/01/24 11:37:44;;;;;;;23.90;12.23;;;-2.60;90.10;;;;;;6211242;23;19993;-89
2022/01/24 11:40:20;;;;;;;26.80;13.98;;;-2.50;90.00;;;;;;6211509;23;20001;-89
2022/01/24 11:42:47;;;;;;;24.38;12.70;;;-2.50;90.00;;;;;;6209933;23;20023;-87
2022/01/24 11:45:17;;;;;;;26.95;13.70;;;-2.50;89.70;;;;;;6183305;23;20005;-86
2022/01/24 11:47:45;;;;;;;28.25;13.77;;;-2.50;89.50;;;;;;6184224;23;20367;-85
2022/01/24 11:50:37;;;;;;;28.25;13.35;;;-2.50;89.40;;;;;;6183628;23;20001;-86
2022/01/24 11:53:24;;;;;;;29.08;13.48;;;-2.50;89.50;;;;;;6183658;23;20504;-89
2022/01/24 11:55:50;;;;;;;26.80;13.88;;;-2.60;90.30;;;;;;6184848;23;20039;-86
2022/01/24 11:58:28;;;;;;;25.63;12.80;;;-2.60;90.10;;;;;;6184860;23;20355;-87
2022/01/24 12:01:00;;;;;;;28.08;13.18;;;-2.60;90.20;;;;;;6187721;23;20000;-87
2022/01/24 12:03:27;;;;;;;25.13;13.10;;;-2.50;90.10;;;;;;6212890;23;20072;-88
2022/01/24 12:05:56;;;;;;;29.85;13.48;;;-2.60;90.20;;;;;;6184125;23;20787;-87
2022/01/24 12:08:32;;;;;;;30.42;14.45;;;-2.60;90.80;;;;;;6209863;23;19996;-87
2022/01/24 12:11:24;;;;;;;27.17;13.43;;;-2.70;91.80;;;;;;6210042;23;20418;-86
2022/01/24 12:14:01;;;;;;;28.67;14.70;;;-2.80;92.60;;;;;;6184140;23;20342;-87
2022/01/24 12:16:53;;;;;;;26.40;13.23;;;-2.80;92.70;;;;;;6210878;23;20088;-88
2022/01/24 12:19:31;;;;;;;26.88;13.00;;;-2.80;94.40;;;;;;6178737;23;20009;-87
2022/01/24 12:21:57;;;;;;;29.10;14.45;;;-2.80;94.20;;;;;;6184291;23;20008;-86
2022/01/24 12:24:22;;;;;;;27.42;13.60;;;-2.80;93.50;;;;;;6210936;23;20088;-87
2022/01/24 12:27:03;;;;;;;27.08;13.40;;;-2.80;93.60;;;;;;6211847;23;20050;-86
2022/01/24 12:29:30;;;;;;;26.33;12.48;;;-2.80;93.60;;;;;;6184781;23;20020;-86
2022/01/24 12:31:59;;;;;;;27.45;14.25;;;-2.80;93.60;;;;;;6184318;23;20091;-87
2022/01/24 12:34:31;;;;;;;28.10;14.05;;;-2.70;93.40;;;;;;6210289;23;20008;-86
2022/01/24 12:37:21;;;;;;;27.33;13.57;;;-2.80;93.60;;;;;;6210460;23;20003;-88
2022/01/24 12:39:55;;;;;;;27.02;13.60;;;-2.90;93.80;;;;;;6183657;23;20004;-87
2022/01/24 12:42:38;;;;;;;29.80;14.63;;;-2.90;93.60;;;;;;6184102;23;20080;-87
2022/01/24 12:48:16;;;;;;;28.73;13.75;;;-3.00;93.90;;;;;;6211086;23;20011;-89
2022/01/24 12:50:51;;;;;;;32.10;14.10;;;-3.00;93.70;;;;;;6210017;23;20004;-88
2022/01/24 12:53:17;;;;;;;27.67;14.32;;;-3.00;93.60;;;;;;6183997;23;20052;-87
2022/01/24 12:55:44;;;;;;;27.25;13.40;;;-3.00;93.40;;;;;;6184450;23;20053;-86
2022/01/24 12:58:11;;;;;;;32.95;14.23;;;-3.00;93.60;;;;;;6183185;23;19997;-87
2022/01/24 13:00:44;;;;;;;33.88;15.05;;;-3.00;93.90;;;;;;6183419;23;20005;-88
2022/01/24 13:03:11;;;;;;;29.98;14.05;;;-3.00;93.70;;;;;;6213632;23;20071;-88
2022/01/24 13:05:38;;;;;;;30.80;14.85;;;-3.00;93.30;;;;;;6210306;23;20004;-87
2022/01/24 13:08:04;;;;;;;29.70;13.80;;;-3.10;93.50;;;;;;6211056;23;20000;-86
2022/01/24 13:10:31;;;;;;;29.48;14.18;;;-3.10;93.70;;;;;;6184863;23;20000;-89
2022/01/24 13:13:07;;;;;;;26.75;12.95;;;-3.10;94.10;;;;;;6183211;23;20055;-86
2022/01/24 13:21:16;;;;;;;31.33;14.60;;;-3.10;94.20;;;;;;6210600;23;20062;-86
2022/01/24 13:23:53;;;;;;;32.90;15.02;;;-3.10;94.80;;;;;;6184385;23;20001;-87
2022/01/24 13:26:19;;;;;;;35.30;16.30;;;-3.10;95.40;;;;;;6211169;23;20135;-87
2022/01/24 13:28:45;;;;;;;34.55;17.13;;;-3.20;95.20;;;;;;6182831;23;20107;-86
2022/01/24 13:31:10;;;;;;;34.10;15.20;;;-3.20;95.70;;;;;;6211351;23;20428;-86
2022/01/24 13:33:45;;;;;;;34.67;15.77;;;-3.10;95.50;;;;;;6184305;23;20013;-88
2022/01/24 13:36:11;;;;;;;31.88;14.80;;;-3.10;95.70;;;;;;6183886;23;20008;-87
2022/01/24 13:38:46;;;;;;;30.00;14.82;;;-3.10;95.50;;;;;;6181747;23;20316;-87
2022/01/24 13:41:17;;;;;;;31.15;14.60;;;-3.20;96.00;;;;;;6181868;23;20000;-87
2022/01/24 13:43:46;;;;;;;32.20;15.60;;;-3.30;96.10;;;;;;6182975;23;20408;-86
2022/01/24 13:46:16;;;;;;;32.90;15.13;;;-3.20;96.00;;;;;;6183983;23;20479;-86
2022/01/24 13:48:48;;;;;;;29.75;14.25;;;-3.30;96.80;;;;;;6180565;23;20005;-87
2022/01/24 13:51:43;;;;;;;30.50;13.90;;;-3.30;97.10;;;;;;6207669;23;20075;-87
2022/01/24 13:54:19;;;;;;;26.48;13.05;;;-3.40;97.40;;;;;;6181664;23;20020;-86
2022/01/24 13:56:53;;;;;;;28.75;14.55;;;-3.30;97.40;;;;;;6208303;23;20028;-87
2022/01/24 13:59:25;;;;;;;27.55;13.38;;;-3.30;97.00;;;;;;6182162;23;20005;-87
2022/01/24 14:01:51;;;;;;;28.73;14.23;;;-3.40;97.70;;;;;;6182671;23;20018;-87
2022/01/24 14:04:27;;;;;;;28.40;13.35;;;-3.30;97.20;;;;;;6182768;23;20423;-87
2022/01/24 14:06:58;;;;;;;23.85;12.30;;;-3.30;97.20;;;;;;6209055;23;20469;-89
2022/01/24 14:09:32;;;;;;;30.17;13.65;;;-3.40;96.90;;;;;;6182193;23;20443;-87
2022/01/24 14:11:58;;;;;;;32.67;14.10;;;-3.30;96.40;;;;;;6182869;23;20388;-88
2022/01/24 14:14:38;;;;;;;29.70;14.35;;;-3.30;96.80;;;;;;6183389;23;20042;-87
2022/01/24 14:19:39;;;;;;;26.00;12.25;;;-3.40;96.80;;;;;;6212465;23;20327;-86
2022/01/24 14:22:13;;;;;;;25.70;11.98;;;-3.40;96.80;;;;;;6208967;23;20001;-87
2022/01/24 14:24:51;;;;;;;24.38;11.73;;;-3.30;96.60;;;;;;6210374;23;20003;-88
2022/01/24 14:27:42;;;;;;;27.73;12.55;;;-3.30;96.30;;;;;;6210670;23;19993;-88
2022/01/24 14:30:11;;;;;;;21.85;11.48;;;-3.30;97.00;;;;;;6211338;23;20008;-88
2022/01/24 14:32:45;;;;;;;21.95;10.75;;;-3.30;96.40;;;;;;6183340;23;20023;-88
2022/01/24 14:35:11;;;;;;;21.98;11.00;;;-3.30;96.70;;;;;;6183188;23;20040;-88
2022/01/24 14:37:47;;;;;;;24.08;11.07;;;-3.20;96.70;;;;;;6183468;23;20053;-88
2022/01/24 14:40:32;;;;;;;19.58;9.90;;;-3.20;97.40;;;;;;6184867;23;20396;-88
2022/01/24 14:44:53;;;;;;;19.67;10.10;;;-3.20;97.30;;;;;;6183607;23;19997;-89
2022/01/24 14:45:44;;;;;;;21.65;11.00;;;-3.20;97.00;;;;;;6209937;23;20262;-89